Résultats

OffRoad VTT Paca : 35Km Open. Édition 2013.

35 Km
16/03/2013 à 00:00:00 - ()
218 arrivant(e)s.


 
Les autres classements de cet évènement




Place▲ Temps Dossard Nom Prenom Categ #Categ Sexe #Sexe ClubVit Moy Diplôme Partager
1 01:30:48 1200 SARROU JORDAN ESPM 1 M 1 (VELO CLUB DE BESSE) TEAM FOCUS ROTOR CO23.13
2 01:31:30 1411 GRUGET MARWIN ESPM 2 M 2 LOOK BEAUME-DE-VENISE22.95
3 01:38:13 1220 MEUZARD THEO ESPM 3 M 3 R-VTT MORILLON21.38
4 01:38:46 1211 SEIGLE ROMAIN ESPM 4 M 4 CVAC VIENNE21.26
5 01:40:30 210 CANAU ARNAUD ESPM 5 M 5 AIX VTT THRIFTY20.90
6 01:41:19 1234 ROUX SEBASTIEN ESPM 6 M 6 TEAM C2S VTT20.73
7 01:41:22 1026 SEGUY MATTHIEU ESPM 7 M 7 VTT LOZERE20.72
8 01:44:04 1028 FESQUET SYLVAIN ESPM 8 M 8 AS MURET20.18
9 01:47:34 1015 GARVI CLEMENT M1M 1 M 9 19.52
10 01:48:09 1231 MARROU ERIC M1M 2 M 10 SSMC MIRAMAS19.42
11 01:48:48 1225 DONZET PASCAL M2M 1 M 11 AVC SISTERON19.30
12 01:48:48 1398 CAMERA JULIEN SEM 1 M 12 TOULON VTT19.30
13 01:48:50 1413 NEYENER JULIEN M1M 3 M 13 VELOVERT19.30
14 01:49:45 1069 SENECHAL YANNICK M2M 2 M 14 MASSILIA MIKE SYSTEM19.13
15 01:50:16 1243 LAURENT MAXIME ESPM 9 M 15 ALPES PROVENCE9.90
16 01:50:37 1253 GARCIA ANDY ESPM 10 M 16 ACCRO VELO18.98
17 01:51:16 1238 FONTAINE GILLES SEM 2 M 17 C.L.I.C. VTT18.87
18 01:51:38 1403 CONTRI BEJAMIN SEM 3 M 18 AIX VTT THRIFTY18.81
19 01:52:47 1285 PRUDHOMME FLORIAN SEM 4 M 19 CALVISSON VTT18.62
20 01:52:55 59 MALOT JEAN M3M 1 M 20 DIJON SPORT CYCLISME18.60
21 01:53:20 1236 FRUCHART NATHANAEL M1M 4 M 21 VELO-PLUS18.53
22 01:53:28 1237 LEDUC PHILIPPE M2M 3 M 22 DREAM TEAM BIKE18.51
23 01:53:46 1278 LANGASQUE DIDIER M2M 4 M 23 CA PEYMEINADE18.46
24 01:53:46 1256 MARTIN LUDOVIC ESPM 11 M 24 VC VITROLLES18.46
25 01:54:52 1212 BROGLIA ALAIN M3M 2 M 25 MJC PLAN DE CUQUES18.28
26 01:56:58 1466 JULVE MATHIEU SEM 5 M 26 EC ANDUZE17.95
27 01:58:07 1235 RAISON GAUTHIER M1M 5 M 27 LA MOTTE SERVOLEX17.78
28 01:59:07 1074 CRONIER PHILIPPE M2M 5 M 28 ISTRES SPORT VTT17.63
29 02:00:28 1064 CHIOSSONE PHILIPPE M2M 6 M 29 SPORT POLICE17.43
30 02:05:39 1233 FONTAINE THIERRY M2M 7 M 30 TEAM MIA SANTA CRUZ16.71
31 02:07:01 1245 HEROLD MAXIME ESPM 12 M 31 CALVISSON VTT16.53
32 02:07:23 1277 FLAISSIER ROBIN M2M 8 M 32 EC TARASCON16.49
33 02:07:43 1202 VENTURINI CLEMENT ESPM 13 M 33 TEAM NEW CYCLING16.44
34 02:08:11 1012 GRASSI DAVID M2M 9 M 34 CAVIGAL NICE16.38
35 02:08:42 1252 CABRERA MARC M3M 3 M 35 VELO SPORT HEROIS16.32
36 02:08:52 1302 HERY JEAN-PAUL M2M 10 M 36 AC BEDOULEN16.30
37 02:08:55 1254 ROVERSO GILLES ESPM 14 M 37 VELO CLUB VEDASIEN16.29
38 02:09:30 1306 BAGNOL HERVE M3M 4 M 38 VTT STE BAUME16.22
39 02:09:42 1319 SAROUL ALAIN M1M 6 M 39 TEAM 26/0716.19
40 02:09:55 1078 CARETTO FREDERIC M2M 11 M 40 16.16
41 02:10:16 1207 LEROY NICOLAS ESPM 15 M 41 AIX VTT THRIFTY9.90
42 02:10:58 1294 SOUCHON SEBASTIEN ESPM 16 M 42 C.L.I.C. VTT9.90
43 02:11:26 1255 IVARS CYRIL M1M 7 M 43 THIFTY AIX VTT15.98
44 02:11:43 1409 COUSIN DIDIER M1M 8 M 44 PAS DE JAMBE PAS DE CHOCOLAT15.94
45 02:11:53 1332 TESTE PATRICE M2M 12 M 45 ARAMON GAZELEC15.92
46 02:12:24 1405 GUAY PASCAL M2M 13 M 46 AIX VTT THRIFTY15.86
47 02:12:45 1260 HEROLD STEPHANE M2M 14 M 47 CALVISSON VTT15.82
48 02:12:57 1241 PORTAL CHRISTOPHE M2M 15 M 48 AIX VTT THRIFTY15.80
49 02:13:01 1281 GIRAUDO NICOLAS M1M 9 M 49 X TERA AVENTURE PELISSANNE15.79
50 02:13:15 1460 LEPRUN TIMOTHE SEM 6 M 50 C.I.C.L.O AUXERRE15.76
51 02:13:51 1206 GENESTE THIBAULT ESPM 17 M 51 TEAM NEW CYCLING15.69
52 02:13:59 1027 PRADEILLES PIERRE ESPM 18 M 52 VTT LOZERE15.67
53 02:14:04 1298 HENRY THOMAS M1M 10 M 53 TEAM VTT SAINTE VICTOIRE15.66
54 02:14:12 1246 GIRAUD SERGE M3M 5 M 54 AVC SISTERON15.65
55 02:14:16 1462 ALLEMAND ARNAUD ESPM 19 M 55 AS MURET CYCLISTE15.64
56 02:14:22 1339 RICHARD FREDERIC M2M 16 M 56 USCPCA RP15.63
57 02:14:42 1061 FRANZOI DAVID M2M 17 M 57 15.59
58 02:14:47 1029 SICOT FRANCOIS M2M 18 M 58 AS MURET15.58
59 02:15:36 1311 BARETY JULIEN SEM 7 M 59 AIX VTT THRIFTY15.49
60 02:17:19 1300 PIFFETEAU FLORIAN SEM 8 M 60 GUIDON D'OR LA LECHERE15.29
61 02:17:19 1299 LAZZARONI FABIEN M1M 11 M 61 GUIDON D'OR LALECHERE15.29
62 02:17:26 1384 BONFAND PATRICE M1M 12 M 62 TEAM C2S VTT15.28
63 02:17:46 1293 PAJON THOMAS ESPM 20 M 63 HUMAN ENERGY15.24
64 02:18:08 1250 GAZELLE LOIC ESPM 21 M 64 ALPES PROVENCE15.20
65 02:18:37 1318 MICHEL ERIC M2M 19 M 65 LES VIEUX COCHONS SEILLONNAIS15.15
66 02:18:52 1214 FERRE GERY M2M 20 M 66 MJC PLAN DE CUQUES9.90
67 02:19:15 1452 SIMIAN PIERRE M1M 13 M 67 VC VITROLLES9.90
68 02:19:15 1160 ALBIN/MASSELIS STEPHAN/FREDERIC TDMHOM 1 M 68 AMSLF LEVENS9.90
69 02:19:20 1297 PALIX ALEXANDRE M2M 21 M 69 S-O CABANNES9.90
70 02:19:23 1304 GAYNON JEAN-LUC M3M 6 M 70 LYONVTT9.90
71 02:20:04 1066 LACOUR LOUIS M3M 7 M 71 AIX VTT THRIFTY14.99
72 02:20:05 1358 PIERI JEAN-BAPTISTE M1M 14 M 72 VTT SAINTE VICTOIRE14.99
73 02:20:11 1453 DUVERNAY DENIS M2M 22 M 73 VC VITROLLES14.98
74 02:20:29 1464 FRANCO GUILLAUME SEM 9 M 74 IDM14.95
75 02:20:30 1445 MERCIECA CHRISTOPHE M1M 15 M 75 14.95
76 02:20:30 1075 BERRIGUIER JACQUES M2M 23 M 76 14.95
77 02:20:31 1357 FERRACCI JEAN-CLAUDE M2M 24 M 77 VELO CLUB AJACCIO14.94
78 02:20:41 1367 AUFFAN JESSY M1M 16 M 78 VELO+14.93
79 02:20:50 1213 GIANI ANDRE M3M 8 M 79 MJC PLAN DE CUQUES14.91
80 02:20:54 1331 PETITCLAIR PATRICK M3M 9 M 80 GAZELEC ARAMON VTT14.90
81 02:21:14 1461 ROMAND LIONEL M1M 17 M 81 BRISON SAINT INNOCENT CYCLISME14.87
82 02:21:54 1435 VIGNA PIERRE-JEAN M2M 25 M 82 SV FONTENAISIENNE14.80
83 02:21:59 1451 GUERS SEBASTIEN M1M 18 M 83 VC SALINDRES SAINT-PRIVAT14.79
84 02:22:22 1289 MOLZINO GERALD M3M 10 M 84 VELO CLUB ST REMY DE PROVENCE14.75
85 02:22:30 1431 SALOMON LUC M3M 11 M 85 ROUE D OR MUYOISE14.74
86 02:22:34 1374 CHAVEROT GERARD M2M 26 M 86 14.73
87 02:23:09 1263 GOEFFIC FRANCK M2M 27 M 87 ST PONS VTT GEMENOS14.67
88 02:23:19 1051 TORNATO VIRGILE M2M 28 M 88 DREAM TEAM BIKE14.65
89 02:23:52 1340 MIQUEL FRANCOIS M1M 19 M 89 LES TAMALOUS14.60
90 02:24:05 1362 MENDEZ-MARTINEZ DENIS M3M 12 M 90 14.57
91 02:24:18 1370 BARATTERO NICOLAS M1M 20 M 91 TOULON VTT14.55
92 02:24:18 1284 LOUBET ROMAIN ESPM 22 M 92 C.L.I.C. VTT14.55
93 02:24:22 1011 PAJON JAMES M3M 13 M 93 UC PASSY MT BLANC14.55
94 02:24:32 1314 AMALBERTI ERIC M1M 21 M 94 A.C. MARSEILLE EST14.53
95 02:25:53 1218 PHILIPP PASCAL M2M 29 M 95 SPRINTER CLUB BRIANAON14.40
96 02:26:17 1407 LEBOT JEAN-MARC M2M 30 M 96 CV PERNES14.36
97 02:26:26 208 BOURDON PIERRE M3M 14 M 97 ANNECY CC14.34
98 02:26:41 1470 SENEQUIER ANTHONY SEM 10 M 98 IDM14.32
99 02:27:27 1279 LECOURT STEPHANE M2M 31 M 99 CAP VTT LA CIOTAT14.24
100 02:27:52 1323 DUVAL CHRISTOPHE M2M 32 M 100 TEAM VTT SAINTE VICTOIRE14.20
101 02:29:25 1388 BUGLI FREDERIC M2M 33 M 101 9.90